createdAt,value
2022-10-19T00:00:53.952Z,9.50
2022-10-19T00:01:53.988Z,9.48
2022-10-19T00:02:53.953Z,9.45
2022-10-19T00:03:53.977Z,9.42
2022-10-19T00:04:53.933Z,9.42
2022-10-19T00:05:53.904Z,9.40
2022-10-19T00:06:53.923Z,9.42
2022-10-19T00:07:53.882Z,9.42
2022-10-19T00:08:53.883Z,9.43
2022-10-19T00:09:53.863Z,9.42
2022-10-19T00:10:53.862Z,9.40
2022-10-19T00:11:53.835Z,9.35
2022-10-19T00:12:53.828Z,9.34
2022-10-19T00:13:53.808Z,9.34
2022-10-19T00:14:53.811Z,9.35
2022-10-19T00:15:53.787Z,9.34
2022-10-19T00:16:53.786Z,9.38
2022-10-19T00:17:53.796Z,9.34
2022-10-19T00:18:53.761Z,9.35
2022-10-19T00:19:53.742Z,9.39
2022-10-19T00:20:53.735Z,9.39
2022-10-19T00:21:53.730Z,9.38
2022-10-19T00:22:53.750Z,9.35
2022-10-19T00:23:53.703Z,9.32
2022-10-19T00:24:53.697Z,9.32
2022-10-19T00:25:53.687Z,9.31
2022-10-19T00:26:53.690Z,9.32
2022-10-19T00:27:53.659Z,9.34
2022-10-19T00:28:53.688Z,9.28
2022-10-19T00:29:53.645Z,9.25
2022-10-19T00:30:53.635Z,9.23
2022-10-19T00:31:53.621Z,9.18
2022-10-19T00:32:53.638Z,9.16
2022-10-19T00:33:53.600Z,9.15
2022-10-19T00:34:53.590Z,9.15
2022-10-19T00:35:53.590Z,9.15
2022-10-19T00:36:53.576Z,9.15
2022-10-19T00:37:53.575Z,9.15
2022-10-19T00:38:53.559Z,9.18
2022-10-19T00:39:53.572Z,9.16
2022-10-19T00:40:53.513Z,9.18
2022-10-19T00:41:53.525Z,9.18
2022-10-19T00:42:53.509Z,9.16
2022-10-19T00:43:53.524Z,9.16
2022-10-19T00:44:53.480Z,9.16
2022-10-19T00:45:53.475Z,9.20
2022-10-19T00:46:53.470Z,9.20
2022-10-19T00:47:53.433Z,9.16
2022-10-19T00:48:53.444Z,9.18
2022-10-19T00:49:53.451Z,9.21
2022-10-19T00:50:53.425Z,9.23
2022-10-19T00:51:53.395Z,9.27
2022-10-19T00:52:53.418Z,9.27
2022-10-19T00:53:53.385Z,9.28
2022-10-19T00:54:53.371Z,9.30
2022-10-19T00:55:53.376Z,9.30
2022-10-19T00:56:53.353Z,9.25
2022-10-19T00:57:53.345Z,9.25
2022-10-19T00:58:53.362Z,9.24
2022-10-19T00:59:53.313Z,9.23
2022-10-19T01:00:54.313Z,9.25
2022-10-19T01:01:53.298Z,9.24
2022-10-19T01:02:53.288Z,9.21
2022-10-19T01:03:53.281Z,9.21
2022-10-19T01:04:53.267Z,9.20
2022-10-19T01:05:53.249Z,9.18
2022-10-19T01:06:53.266Z,9.18
2022-10-19T01:07:53.229Z,9.15
2022-10-19T01:08:53.248Z,9.16
2022-10-19T01:09:53.210Z,9.16
2022-10-19T01:10:53.207Z,9.18
2022-10-19T01:11:53.200Z,9.12
2022-10-19T01:12:53.184Z,9.09
2022-10-19T01:13:53.159Z,9.06
2022-10-19T01:14:53.175Z,9.05
2022-10-19T01:16:53.133Z,9.02
2022-10-19T01:17:53.124Z,9.04
2022-10-19T01:18:53.125Z,9.06
2022-10-19T01:19:53.123Z,9.09
2022-10-19T01:20:53.116Z,9.09
2022-10-19T01:21:54.034Z,9.12
2022-10-19T01:22:53.069Z,9.12
2022-10-19T01:23:53.074Z,9.06
2022-10-19T01:24:53.076Z,9.05
2022-10-19T01:25:53.047Z,9.06
2022-10-19T01:26:53.027Z,9.09
2022-10-19T01:27:53.030Z,9.09
2022-10-19T01:28:53.082Z,9.06
2022-10-19T01:29:52.989Z,9.05
2022-10-19T01:30:52.994Z,9.02
2022-10-19T01:31:52.983Z,8.97
2022-10-19T01:32:52.970Z,8.97
2022-10-19T01:33:53.023Z,8.96
2022-10-19T01:34:52.957Z,8.99
2022-10-19T01:35:52.966Z,8.99
2022-10-19T01:36:52.967Z,8.99
2022-10-19T01:37:53.878Z,9.01
2022-10-19T01:38:52.906Z,9.04
2022-10-19T01:39:52.912Z,9.06
2022-10-19T01:40:52.874Z,9.10
2022-10-19T01:41:52.859Z,9.10
2022-10-19T01:42:52.866Z,9.10
2022-10-19T01:43:52.841Z,9.10
2022-10-19T01:44:52.840Z,9.09
2022-10-19T01:45:52.833Z,9.09
2022-10-19T01:46:52.818Z,9.10
2022-10-19T01:47:52.802Z,9.06
2022-10-19T01:48:52.783Z,9.06
2022-10-19T01:49:52.784Z,9.06
2022-10-19T01:50:52.799Z,9.04
2022-10-19T01:51:52.824Z,9.02
2022-10-19T01:52:52.752Z,8.94
2022-10-19T01:53:52.745Z,8.91
2022-10-19T01:54:52.722Z,8.88
2022-10-19T01:55:52.748Z,8.91
2022-10-19T01:56:52.707Z,8.91
2022-10-19T01:57:52.709Z,8.93
2022-10-19T01:58:52.684Z,8.81
2022-10-19T01:59:52.670Z,8.79
2022-10-19T02:00:52.828Z,8.81
2022-10-19T02:01:52.666Z,8.83
2022-10-19T02:02:52.663Z,8.84
2022-10-19T02:03:52.652Z,8.88
2022-10-19T02:04:52.611Z,8.93
2022-10-19T02:05:52.631Z,8.96
2022-10-19T02:06:52.599Z,8.97
2022-10-19T02:07:52.639Z,8.99
2022-10-19T02:08:52.575Z,9.01
2022-10-19T02:09:52.577Z,9.04
2022-10-19T02:10:52.573Z,9.04
2022-10-19T02:11:56.128Z,9.04
2022-10-19T02:12:52.534Z,9.04
2022-10-19T02:13:52.528Z,9.04
2022-10-19T02:14:52.531Z,9.06
2022-10-19T02:15:52.498Z,9.06
2022-10-19T02:16:52.490Z,9.06
2022-10-19T02:17:52.479Z,9.10
2022-10-19T02:18:52.469Z,9.13
2022-10-19T02:19:52.493Z,9.15
2022-10-19T02:20:52.443Z,9.16
2022-10-19T02:21:52.454Z,9.18
2022-10-19T02:22:52.442Z,9.15
2022-10-19T02:23:54.192Z,9.18
2022-10-19T02:24:52.412Z,9.18
2022-10-19T02:25:52.398Z,9.20
2022-10-19T02:26:52.384Z,9.20
2022-10-19T02:27:52.393Z,9.21
2022-10-19T02:28:52.366Z,9.24
2022-10-19T02:29:52.343Z,9.25
2022-10-19T02:30:52.344Z,9.28
2022-10-19T02:31:52.334Z,9.30
2022-10-19T02:32:52.323Z,9.30
2022-10-19T02:33:52.307Z,9.28
2022-10-19T02:34:52.295Z,9.27
2022-10-19T02:35:52.293Z,9.28
2022-10-19T02:36:52.285Z,9.30
2022-10-19T02:37:52.273Z,9.32
2022-10-19T02:38:52.251Z,9.31
2022-10-19T02:39:52.251Z,9.32
2022-10-19T02:40:52.248Z,9.32
2022-10-19T02:41:52.221Z,9.34
2022-10-19T02:42:52.208Z,9.35
2022-10-19T02:43:52.202Z,9.34
2022-10-19T02:44:52.182Z,9.21
2022-10-19T02:45:52.202Z,9.04
2022-10-19T02:46:52.179Z,8.97
2022-10-19T02:47:52.178Z,8.94
2022-10-19T02:48:52.138Z,8.91
2022-10-19T02:49:52.133Z,8.91
2022-10-19T02:50:52.131Z,8.94
2022-10-19T02:51:52.124Z,8.99
2022-10-19T02:52:52.114Z,9.04
2022-10-19T02:53:52.096Z,9.06
2022-10-19T02:54:52.080Z,9.09
2022-10-19T02:55:52.071Z,9.13
2022-10-19T02:56:52.093Z,9.16
2022-10-19T02:57:52.073Z,9.18
2022-10-19T02:58:52.052Z,9.18
2022-10-19T02:59:52.039Z,9.21
2022-10-19T03:00:52.056Z,9.25
2022-10-19T03:01:52.035Z,9.25
2022-10-19T03:02:52.007Z,9.24
2022-10-19T03:03:51.985Z,9.21
2022-10-19T03:04:51.979Z,9.18
2022-10-19T03:05:51.984Z,9.15
2022-10-19T03:06:52.653Z,9.13
2022-10-19T03:07:52.617Z,9.13
2022-10-19T03:08:51.950Z,9.10
2022-10-19T03:09:51.933Z,9.10
2022-10-19T03:10:51.923Z,9.12
2022-10-19T03:11:52.696Z,9.13
2022-10-19T03:12:51.911Z,9.15
2022-10-19T03:13:51.921Z,9.16
2022-10-19T03:14:51.886Z,9.20
2022-10-19T03:15:51.866Z,9.21
2022-10-19T03:16:52.627Z,9.24
2022-10-19T03:17:51.852Z,9.24
2022-10-19T03:18:51.851Z,9.24
2022-10-19T03:19:51.823Z,9.23
2022-10-19T03:20:52.605Z,9.21
2022-10-19T03:21:51.813Z,9.24
2022-10-19T03:23:51.771Z,9.28
2022-10-19T03:24:51.759Z,9.30
2022-10-19T03:25:51.759Z,9.32
2022-10-19T03:26:51.763Z,9.31
2022-10-19T03:27:51.758Z,9.30
2022-10-19T03:28:51.743Z,9.28
2022-10-19T03:29:51.714Z,9.25
2022-10-19T03:30:51.704Z,9.23
2022-10-19T03:31:51.695Z,9.20
2022-10-19T03:32:51.710Z,9.18
2022-10-19T03:33:51.682Z,9.16
2022-10-19T03:34:51.665Z,9.20
2022-10-19T03:35:51.639Z,9.20
2022-10-19T03:36:51.620Z,9.23
2022-10-19T03:37:51.640Z,9.23
2022-10-19T03:38:51.613Z,9.24
2022-10-19T03:39:51.622Z,9.25
2022-10-19T03:40:51.588Z,9.27
2022-10-19T03:41:51.576Z,9.30
2022-10-19T03:42:51.563Z,9.30
2022-10-19T03:43:51.609Z,9.28
2022-10-19T03:44:51.537Z,9.27
2022-10-19T03:45:51.555Z,9.25
2022-10-19T03:46:51.517Z,9.23
2022-10-19T03:47:51.524Z,9.23
2022-10-19T03:48:51.506Z,9.23
2022-10-19T03:49:51.486Z,9.21
2022-10-19T03:50:51.501Z,9.20
2022-10-19T03:51:51.467Z,9.20
2022-10-19T03:52:51.476Z,9.20
2022-10-19T03:53:51.445Z,9.20
2022-10-19T03:54:51.435Z,9.20
2022-10-19T03:55:51.430Z,9.21
2022-10-19T03:56:51.430Z,9.23
2022-10-19T03:57:51.392Z,9.23
2022-10-19T03:58:51.387Z,9.24
2022-10-19T03:59:51.389Z,9.25
2022-10-19T04:00:51.429Z,9.25
2022-10-19T04:01:51.372Z,9.28
2022-10-19T04:02:51.362Z,9.28
2022-10-19T04:03:51.359Z,9.28
2022-10-19T04:04:51.342Z,9.27
2022-10-19T04:05:51.312Z,9.25
2022-10-19T04:06:51.307Z,9.24
2022-10-19T04:07:51.301Z,9.24
2022-10-19T04:08:51.313Z,9.20
2022-10-19T04:09:51.272Z,9.18
2022-10-19T04:10:51.252Z,9.12
2022-10-19T04:11:51.252Z,9.05
2022-10-19T04:12:53.867Z,9.05
2022-10-19T04:13:51.251Z,9.05
2022-10-19T04:14:57.382Z,9.10
2022-10-19T04:15:52.210Z,9.10
2022-10-19T04:16:51.194Z,9.12
2022-10-19T04:17:51.195Z,9.13
2022-10-19T04:18:51.167Z,9.13
2022-10-19T04:19:51.178Z,9.15
2022-10-19T04:20:51.169Z,9.10
2022-10-19T04:21:51.169Z,9.06
2022-10-19T04:22:51.149Z,9.09
2022-10-19T04:23:51.117Z,9.09
2022-10-19T04:24:51.126Z,9.10
2022-10-19T04:25:51.098Z,9.12
2022-10-19T04:26:51.083Z,9.16
2022-10-19T04:27:51.079Z,9.18
2022-10-19T04:28:51.093Z,9.21
2022-10-19T04:29:51.066Z,9.25
2022-10-19T04:30:51.040Z,9.27
2022-10-19T04:31:51.028Z,9.30
2022-10-19T04:32:51.017Z,9.31
2022-10-19T04:33:51.009Z,9.30
2022-10-19T04:34:51.009Z,9.31
2022-10-19T04:35:50.980Z,9.32
2022-10-19T04:36:50.985Z,9.31
2022-10-19T04:37:50.968Z,9.32
2022-10-19T04:38:50.983Z,9.32
2022-10-19T04:39:50.941Z,9.32
2022-10-19T04:40:50.932Z,9.31
2022-10-19T04:41:50.940Z,9.32
2022-10-19T04:42:50.908Z,9.31
2022-10-19T04:43:50.911Z,9.31
2022-10-19T04:44:50.913Z,9.32
2022-10-19T04:45:50.880Z,9.31
2022-10-19T04:46:50.890Z,9.31
2022-10-19T04:47:50.878Z,9.31
2022-10-19T04:48:50.848Z,9.32
2022-10-19T04:49:50.854Z,9.32
2022-10-19T04:50:50.840Z,9.30
2022-10-19T04:51:50.814Z,9.31
2022-10-19T04:52:50.804Z,9.31
2022-10-19T04:53:51.688Z,9.31
2022-10-19T04:54:50.776Z,9.30
2022-10-19T04:55:50.786Z,9.28
2022-10-19T04:56:51.716Z,9.30
2022-10-19T04:57:50.787Z,9.25
2022-10-19T04:58:50.737Z,9.28
2022-10-19T04:59:50.727Z,9.25
2022-10-19T05:00:50.794Z,9.25
2022-10-19T05:01:50.730Z,9.25
2022-10-19T05:02:50.699Z,9.20
2022-10-19T05:03:50.728Z,9.20
2022-10-19T05:04:50.718Z,9.20
2022-10-19T05:05:50.686Z,9.16
2022-10-19T05:06:50.658Z,9.13
2022-10-19T05:07:50.660Z,9.06
2022-10-19T05:08:50.645Z,9.05
2022-10-19T05:09:50.635Z,9.02
2022-10-19T05:10:50.617Z,9.01
2022-10-19T05:11:50.604Z,8.97
2022-10-19T05:12:50.603Z,8.97
2022-10-19T05:13:50.598Z,8.99
2022-10-19T05:14:50.590Z,8.99
2022-10-19T05:15:50.559Z,9.06
2022-10-19T05:16:50.591Z,9.09
2022-10-19T05:17:50.535Z,9.09
2022-10-19T05:18:50.538Z,9.10
2022-10-19T05:19:50.502Z,9.12
2022-10-19T05:20:50.499Z,9.12
2022-10-19T05:21:51.450Z,9.16
2022-10-19T05:22:50.523Z,9.16
2022-10-19T05:23:50.478Z,9.16
2022-10-19T05:24:53.354Z,9.20
2022-10-19T05:25:51.462Z,9.21
2022-10-19T05:26:50.445Z,9.24
2022-10-19T05:27:50.423Z,9.24
2022-10-19T05:28:50.472Z,9.24
2022-10-19T05:29:50.406Z,9.23
2022-10-19T05:30:50.406Z,9.25
2022-10-19T05:31:50.387Z,9.24
2022-10-19T05:32:50.377Z,9.21
2022-10-19T05:33:50.539Z,9.18
2022-10-19T05:34:50.362Z,9.16
2022-10-19T05:35:50.332Z,9.15
2022-10-19T05:36:50.325Z,9.12
2022-10-19T05:37:50.317Z,9.09
2022-10-19T05:38:50.331Z,9.10
2022-10-19T05:39:50.298Z,9.12
2022-10-19T05:40:52.959Z,9.10
2022-10-19T05:41:50.277Z,9.12
2022-10-19T05:42:50.264Z,9.15
2022-10-19T05:43:50.248Z,9.18
2022-10-19T05:44:50.285Z,9.18
2022-10-19T05:45:50.224Z,9.16
2022-10-19T05:46:50.225Z,9.18
2022-10-19T05:47:50.224Z,9.20
2022-10-19T05:48:51.146Z,9.23
2022-10-19T05:49:50.203Z,9.24
2022-10-19T05:50:50.184Z,9.25
2022-10-19T05:51:50.181Z,9.27
2022-10-19T05:52:50.151Z,9.27
2022-10-19T05:53:50.137Z,9.27
2022-10-19T05:54:50.142Z,9.27
2022-10-19T05:55:50.113Z,9.21
2022-10-19T05:56:50.139Z,9.12
2022-10-19T05:57:50.103Z,9.10
2022-10-19T05:58:50.110Z,9.09
2022-10-19T05:59:50.121Z,9.10
2022-10-19T06:00:50.085Z,9.12
2022-10-19T06:01:50.125Z,9.13
2022-10-19T06:02:50.060Z,9.15
2022-10-19T06:03:50.036Z,9.18
2022-10-19T06:04:50.136Z,9.21
2022-10-19T06:05:50.019Z,9.25
2022-10-19T06:06:50.060Z,9.28
2022-10-19T06:07:49.987Z,9.31
2022-10-19T06:08:49.992Z,9.31
2022-10-19T06:09:49.985Z,9.32
2022-10-19T06:10:49.999Z,9.30
2022-10-19T06:11:49.959Z,9.32
2022-10-19T06:12:49.940Z,9.34
2022-10-19T06:13:49.925Z,9.35
2022-10-19T06:14:49.916Z,9.38
2022-10-19T06:15:49.928Z,9.35
2022-10-19T06:16:49.911Z,9.40
2022-10-19T06:17:49.926Z,9.39
2022-10-19T06:18:49.908Z,9.38
2022-10-19T06:19:49.864Z,9.39
2022-10-19T06:20:49.862Z,9.39
2022-10-19T06:21:49.845Z,9.40
2022-10-19T06:22:49.843Z,9.42
2022-10-19T06:23:50.788Z,9.43
2022-10-19T06:24:49.812Z,9.45
2022-10-19T06:25:49.812Z,9.45
2022-10-19T06:26:49.792Z,9.46
2022-10-19T06:27:49.838Z,9.48
2022-10-19T06:28:49.774Z,9.50
2022-10-19T06:29:49.776Z,9.50
2022-10-19T06:30:49.824Z,9.53
2022-10-19T06:31:49.760Z,9.57
2022-10-19T06:32:49.790Z,9.58
2022-10-19T06:33:49.909Z,9.57
2022-10-19T06:34:52.999Z,9.53
2022-10-19T06:35:49.684Z,9.52
2022-10-19T06:36:49.685Z,9.52
2022-10-19T06:37:49.675Z,9.53
2022-10-19T06:38:49.656Z,9.58
2022-10-19T06:39:49.705Z,9.58
2022-10-19T06:40:49.646Z,9.60
2022-10-19T06:41:49.638Z,9.60
2022-10-19T06:42:49.642Z,9.60
2022-10-19T06:43:49.608Z,9.61
2022-10-19T06:44:49.603Z,9.61
2022-10-19T06:45:49.591Z,9.64
2022-10-19T06:46:49.589Z,9.67
2022-10-19T06:47:49.591Z,9.67
2022-10-19T06:48:49.541Z,9.67
2022-10-19T06:49:49.534Z,9.67
2022-10-19T06:50:49.548Z,9.70
2022-10-19T06:51:49.515Z,9.70
2022-10-19T06:52:50.489Z,9.70
2022-10-19T06:53:52.842Z,9.71
2022-10-19T06:54:50.480Z,9.70
2022-10-19T06:55:49.467Z,9.73
2022-10-19T06:57:49.461Z,9.76
2022-10-19T06:58:49.436Z,9.79
2022-10-19T06:59:52.820Z,9.81
2022-10-19T07:00:49.450Z,9.82
2022-10-19T07:01:49.422Z,9.83
2022-10-19T07:02:49.402Z,9.83
2022-10-19T07:03:49.398Z,9.83
2022-10-19T07:04:49.376Z,9.88
2022-10-19T07:05:49.379Z,9.89
2022-10-19T07:06:49.344Z,9.93
2022-10-19T07:07:49.400Z,9.96
2022-10-19T07:08:49.340Z,9.97
2022-10-19T07:09:50.270Z,9.99
2022-10-19T07:10:49.315Z,9.99
2022-10-19T07:11:49.321Z,9.93
2022-10-19T07:12:49.305Z,9.86
2022-10-19T07:13:49.290Z,9.82
2022-10-19T07:14:49.280Z,9.81
2022-10-19T07:15:49.342Z,9.81
2022-10-19T07:16:49.251Z,9.79
2022-10-19T07:17:49.230Z,9.79
2022-10-19T07:18:49.247Z,9.81
2022-10-19T07:19:49.205Z,9.82
2022-10-19T07:20:49.205Z,9.86
2022-10-19T07:21:49.205Z,9.86
2022-10-19T07:22:49.196Z,9.88
2022-10-19T07:23:49.169Z,9.88
2022-10-19T07:24:49.179Z,9.89
2022-10-19T07:25:49.150Z,9.93
2022-10-19T07:26:49.139Z,9.94
2022-10-19T07:27:49.119Z,9.96
2022-10-19T07:28:49.127Z,9.96
2022-10-19T07:29:49.112Z,9.97
2022-10-19T07:30:49.108Z,9.89
2022-10-19T07:31:49.086Z,9.88
2022-10-19T07:32:49.073Z,9.82
2022-10-19T07:33:49.074Z,9.66
2022-10-19T07:34:49.045Z,9.56
2022-10-19T07:35:49.055Z,9.52
2022-10-19T07:36:49.028Z,9.56
2022-10-19T07:37:49.043Z,9.57
2022-10-19T07:38:49.002Z,9.64
2022-10-19T07:39:48.995Z,9.67
2022-10-19T07:40:49.014Z,9.75
2022-10-19T07:41:48.981Z,9.81
2022-10-19T07:42:49.936Z,9.76
2022-10-19T07:43:48.953Z,9.75
2022-10-19T07:44:48.948Z,9.75
2022-10-19T07:45:48.935Z,9.78
2022-10-19T07:46:48.928Z,9.81
2022-10-19T07:47:48.941Z,9.86
2022-10-19T07:48:48.896Z,9.93
2022-10-19T07:49:48.885Z,9.97
2022-10-19T07:50:48.896Z,10.03
2022-10-19T07:51:48.875Z,10.07
2022-10-19T07:52:48.856Z,10.10
2022-10-19T07:53:48.856Z,10.17
2022-10-19T07:54:48.837Z,10.24
2022-10-19T07:55:48.848Z,10.26
2022-10-19T07:56:48.815Z,10.25
2022-10-19T07:57:48.792Z,10.25
2022-10-19T07:58:48.812Z,10.28
2022-10-19T07:59:48.782Z,10.30
2022-10-19T08:00:48.772Z,10.32
2022-10-19T08:01:48.850Z,10.32
2022-10-19T08:03:02.600Z,10.33
2022-10-19T08:04:43.281Z,10.34
2022-10-19T08:05:00.688Z,10.39
2022-10-19T08:05:49.744Z,10.44
2022-10-19T08:06:48.721Z,10.56
2022-10-19T08:07:48.701Z,10.62
2022-10-19T08:08:48.746Z,10.65
2022-10-19T08:09:53.103Z,10.66
2022-10-19T08:10:49.663Z,10.71
2022-10-19T08:11:48.662Z,10.77
2022-10-19T08:12:48.662Z,10.77
2022-10-19T08:13:48.622Z,10.80
2022-10-19T08:14:48.616Z,10.81
2022-10-19T08:15:48.603Z,10.84
2022-10-19T08:16:48.624Z,10.86
2022-10-19T08:17:48.583Z,10.89
2022-10-19T08:18:48.596Z,10.92
2022-10-19T08:19:48.591Z,10.94
2022-10-19T08:20:48.555Z,10.96
2022-10-19T08:21:48.554Z,10.98
2022-10-19T08:22:48.535Z,10.99
2022-10-19T08:23:48.522Z,10.99
2022-10-19T08:24:48.515Z,11.01
2022-10-19T08:25:48.487Z,11.02
2022-10-19T08:26:48.487Z,10.99
2022-10-19T08:27:48.488Z,10.95
2022-10-19T08:28:48.467Z,10.96
2022-10-19T08:29:48.452Z,11.01
2022-10-19T08:30:48.436Z,10.99
2022-10-19T08:31:48.454Z,11.02
2022-10-19T08:32:48.418Z,11.06
2022-10-19T08:33:48.409Z,11.11
2022-10-19T08:34:48.392Z,11.14
2022-10-19T08:35:48.389Z,11.16
2022-10-19T08:36:48.407Z,11.19
2022-10-19T08:37:48.858Z,11.19
2022-10-19T08:38:48.354Z,11.21
2022-10-19T08:39:48.350Z,11.27
2022-10-19T08:40:48.331Z,11.28
2022-10-19T08:42:48.314Z,11.29
2022-10-19T08:43:48.290Z,11.27
2022-10-19T08:44:48.314Z,11.28
2022-10-19T08:45:48.287Z,11.27
2022-10-19T08:46:48.302Z,11.29
2022-10-19T08:47:48.284Z,11.32
2022-10-19T08:48:48.244Z,11.34
2022-10-19T08:49:48.274Z,11.32
2022-10-19T08:50:48.229Z,11.31
2022-10-19T08:51:48.209Z,11.32
2022-10-19T08:52:48.209Z,11.31
2022-10-19T08:53:48.216Z,11.34
2022-10-19T08:54:48.207Z,11.34
2022-10-19T08:55:48.156Z,11.36
2022-10-19T08:56:51.332Z,11.39
2022-10-19T08:57:48.147Z,11.43
2022-10-19T08:58:48.145Z,11.44
2022-10-19T08:59:48.130Z,11.49
2022-10-19T09:00:48.123Z,11.49
2022-10-19T09:01:48.129Z,11.53
2022-10-19T09:02:48.098Z,11.57
2022-10-19T09:03:55.389Z,11.62
2022-10-19T09:04:49.071Z,11.67
2022-10-19T09:05:48.058Z,11.71
2022-10-19T09:06:48.052Z,11.74
2022-10-19T09:07:48.039Z,11.80
2022-10-19T09:08:48.082Z,11.83
2022-10-19T09:09:48.036Z,11.86
2022-10-19T09:10:48.013Z,11.87
2022-10-19T09:11:47.990Z,11.87
2022-10-19T09:12:47.992Z,11.90
2022-10-19T09:14:04.085Z,11.93
2022-10-19T09:14:49.933Z,11.93
2022-10-19T09:15:47.952Z,11.93
2022-10-19T09:16:47.935Z,11.94
2022-10-19T09:17:47.921Z,11.96
2022-10-19T09:18:48.067Z,11.99
2022-10-19T09:19:47.907Z,12.01
2022-10-19T09:20:47.884Z,12.05
2022-10-19T09:21:48.043Z,12.11
2022-10-19T09:22:47.876Z,12.13
2022-10-19T09:23:47.864Z,12.15
2022-10-19T09:24:47.868Z,12.16
2022-10-19T09:25:47.837Z,12.20
2022-10-19T09:26:47.826Z,12.23
2022-10-19T09:27:47.833Z,12.24
2022-10-19T09:28:47.838Z,12.26
2022-10-19T09:29:47.826Z,12.27
2022-10-19T09:30:47.799Z,12.31
2022-10-19T09:31:47.833Z,12.34
2022-10-19T09:32:47.785Z,12.30
2022-10-19T09:33:47.751Z,12.29
2022-10-19T09:34:47.757Z,12.33
2022-10-19T09:35:47.729Z,12.34
2022-10-19T09:36:51.150Z,12.38
2022-10-19T09:37:47.739Z,12.41
2022-10-19T09:38:47.708Z,12.44
2022-10-19T09:39:52.425Z,12.45
2022-10-19T09:40:48.698Z,12.48
2022-10-19T09:41:47.669Z,12.54
2022-10-19T09:42:47.649Z,12.57
2022-10-19T09:43:47.661Z,12.59
2022-10-19T09:44:47.640Z,12.63
2022-10-19T09:45:47.650Z,12.67
2022-10-19T09:46:47.604Z,12.71
2022-10-19T09:47:47.603Z,12.77
2022-10-19T09:48:47.606Z,12.78
2022-10-19T09:49:47.592Z,12.78
2022-10-19T09:50:47.563Z,12.79
2022-10-19T09:51:47.563Z,12.79
2022-10-19T09:52:47.554Z,12.81
2022-10-19T09:53:47.531Z,12.84
2022-10-19T09:54:47.536Z,12.87
2022-10-19T09:56:47.506Z,12.89
2022-10-19T09:57:47.500Z,12.93
2022-10-19T09:58:47.493Z,12.95
2022-10-19T09:59:47.507Z,13.06
2022-10-19T10:00:47.479Z,13.11
2022-10-19T10:01:47.622Z,13.07
2022-10-19T10:02:47.433Z,13.04
2022-10-19T10:03:49.275Z,13.06
2022-10-19T10:04:47.419Z,13.07
2022-10-19T10:05:47.398Z,13.06
2022-10-19T10:06:47.407Z,13.04
2022-10-19T10:07:47.387Z,13.03
2022-10-19T10:08:47.436Z,13.03
2022-10-19T10:09:47.353Z,13.06
2022-10-19T10:10:47.346Z,13.07
2022-10-19T10:11:47.434Z,13.11
2022-10-19T10:12:47.326Z,13.07
2022-10-19T10:13:47.330Z,13.00
2022-10-19T10:14:47.325Z,12.97
2022-10-19T10:15:47.299Z,12.95
2022-10-19T10:16:47.271Z,12.92
2022-10-19T10:17:47.278Z,12.88
2022-10-19T10:18:47.292Z,12.85
2022-10-19T10:19:47.252Z,12.88
2022-10-19T10:20:47.309Z,12.87
2022-10-19T10:21:47.239Z,12.92
2022-10-19T10:22:47.237Z,12.87
2022-10-19T10:23:47.215Z,12.87
2022-10-19T10:24:47.197Z,12.85
2022-10-19T10:25:47.187Z,12.89
2022-10-19T10:26:47.179Z,12.89
2022-10-19T10:27:47.179Z,12.93
2022-10-19T10:28:47.151Z,12.92
2022-10-19T10:29:47.194Z,12.93
2022-10-19T10:30:47.136Z,12.89
2022-10-19T10:31:47.119Z,12.88
2022-10-19T10:32:48.089Z,12.88
2022-10-19T10:33:47.170Z,12.85
2022-10-19T10:34:51.936Z,12.81
2022-10-19T10:35:48.098Z,12.81
2022-10-19T10:36:47.068Z,12.79
2022-10-19T10:37:47.058Z,12.77
2022-10-19T10:38:47.060Z,12.75
2022-10-19T10:39:47.049Z,12.71
2022-10-19T10:40:47.018Z,12.71
2022-10-19T10:41:47.012Z,12.69
2022-10-19T10:42:47.015Z,12.70
2022-10-19T10:43:47.024Z,12.74
2022-10-19T10:44:46.984Z,12.78
2022-10-19T10:45:46.985Z,12.84
2022-10-19T10:46:46.966Z,12.75
2022-10-19T10:47:46.954Z,12.70
2022-10-19T10:48:48.486Z,12.70
2022-10-19T10:49:46.923Z,12.71
2022-10-19T10:50:46.923Z,12.77
2022-10-19T10:51:50.633Z,12.79
2022-10-19T10:52:47.885Z,12.84
2022-10-19T10:53:46.884Z,12.88
2022-10-19T10:54:46.884Z,12.88
2022-10-19T10:55:46.874Z,12.93
2022-10-19T10:56:47.803Z,12.96
2022-10-19T10:57:46.835Z,13.00
2022-10-19T10:58:46.822Z,13.03
2022-10-19T10:59:46.827Z,13.09
2022-10-19T11:00:46.800Z,13.14
2022-10-19T11:01:46.847Z,13.18
2022-10-19T11:02:46.778Z,13.18
2022-10-19T11:03:46.787Z,13.17
2022-10-19T11:04:48.696Z,13.15
2022-10-19T11:05:47.744Z,13.12
2022-10-19T11:06:46.740Z,13.09
2022-10-19T11:07:46.761Z,13.09
2022-10-19T11:08:46.766Z,13.14
2022-10-19T11:09:46.707Z,13.15
2022-10-19T11:10:46.703Z,13.14
2022-10-19T11:11:46.687Z,13.15
2022-10-19T11:12:46.670Z,13.18
2022-10-19T11:13:46.684Z,13.20
2022-10-19T11:14:46.650Z,13.20
2022-10-19T11:15:46.640Z,13.17
2022-10-19T11:16:46.643Z,13.18
2022-10-19T11:17:46.623Z,13.15
2022-10-19T11:18:46.612Z,13.15
2022-10-19T11:19:46.602Z,13.12
2022-10-19T11:20:46.587Z,12.99
2022-10-19T11:21:46.571Z,12.97
2022-10-19T11:22:46.605Z,12.97
2022-10-19T11:23:46.553Z,13.03
2022-10-19T11:24:48.655Z,13.14
2022-10-19T11:25:46.534Z,13.18
2022-10-19T11:26:46.528Z,13.24
2022-10-19T11:27:46.508Z,13.29
2022-10-19T11:28:46.486Z,13.33
2022-10-19T11:29:46.487Z,13.36
2022-10-19T11:30:49.876Z,13.30
2022-10-19T11:31:46.476Z,13.25
2022-10-19T11:32:46.448Z,13.27
2022-10-19T11:33:46.452Z,13.20
2022-10-19T11:34:46.419Z,13.12
2022-10-19T11:35:46.428Z,13.04
2022-10-19T11:36:46.407Z,13.04
2022-10-19T11:37:50.061Z,13.04
2022-10-19T11:38:47.381Z,13.09
2022-10-19T11:39:46.377Z,13.15
2022-10-19T11:41:12.822Z,13.17
2022-10-19T11:41:47.355Z,13.21
2022-10-19T11:43:46.350Z,13.32
2022-10-19T11:44:46.325Z,13.33
2022-10-19T11:45:46.325Z,13.33
2022-10-19T11:46:46.304Z,13.24
2022-10-19T11:47:46.284Z,13.21
2022-10-19T11:48:46.320Z,13.17
2022-10-19T11:49:46.263Z,13.18
2022-10-19T11:50:53.824Z,13.20
2022-10-19T11:51:47.251Z,13.15
2022-10-19T11:52:46.246Z,13.06
2022-10-19T11:53:46.225Z,13.04
2022-10-19T11:54:46.215Z,13.07
2022-10-19T11:55:46.194Z,13.11
2022-10-19T11:57:02.588Z,13.14
2022-10-19T11:57:47.176Z,13.14
2022-10-19T11:58:46.175Z,13.14
2022-10-19T11:59:46.157Z,13.14
2022-10-19T12:00:46.141Z,13.12
2022-10-19T12:01:46.178Z,13.11
2022-10-19T12:02:46.129Z,13.17
2022-10-19T12:03:46.125Z,13.21
2022-10-19T12:04:46.099Z,13.27
2022-10-19T12:05:46.097Z,13.33
2022-10-19T12:06:46.069Z,13.40
2022-10-19T12:07:46.089Z,13.46
2022-10-19T12:08:46.145Z,13.47
2022-10-19T12:09:46.081Z,13.51
2022-10-19T12:10:46.029Z,13.56
2022-10-19T12:11:46.039Z,13.54
2022-10-19T12:12:46.007Z,13.54
2022-10-19T12:13:46.000Z,13.51
2022-10-19T12:14:46.005Z,13.52
2022-10-19T12:15:46.944Z,13.52
2022-10-19T12:16:45.974Z,13.54
2022-10-19T12:17:45.960Z,13.54
2022-10-19T12:18:45.948Z,13.55
2022-10-19T12:19:45.963Z,13.56
2022-10-19T12:20:45.916Z,13.58
2022-10-19T12:21:45.912Z,13.58
2022-10-19T12:22:45.933Z,13.61
2022-10-19T12:23:45.925Z,13.56
2022-10-19T12:24:45.907Z,13.44
2022-10-19T12:25:45.865Z,13.43
2022-10-19T12:26:45.865Z,13.38
2022-10-19T12:27:45.853Z,13.36
2022-10-19T12:28:45.840Z,13.38
2022-10-19T12:29:45.844Z,13.44
2022-10-19T12:30:45.832Z,13.43
2022-10-19T12:31:45.808Z,13.38
2022-10-19T12:32:45.812Z,13.32
2022-10-19T12:33:45.779Z,13.33
2022-10-19T12:34:45.772Z,13.40
2022-10-19T12:35:45.774Z,13.49
2022-10-19T12:36:45.768Z,13.55
2022-10-19T12:37:45.736Z,13.59
2022-10-19T12:38:47.927Z,13.67
2022-10-19T12:39:46.731Z,13.70
2022-10-19T12:40:45.750Z,13.76
2022-10-19T12:41:45.691Z,13.79
2022-10-19T12:42:45.686Z,13.81
2022-10-19T12:43:45.670Z,13.96
2022-10-19T12:44:45.663Z,14.04
2022-10-19T12:45:45.644Z,14.09
2022-10-19T12:46:49.616Z,14.13
2022-10-19T12:47:46.643Z,14.17
2022-10-19T12:48:45.624Z,14.17
2022-10-19T12:49:45.614Z,14.20
2022-10-19T12:50:46.555Z,14.20
2022-10-19T12:51:45.590Z,14.14
2022-10-19T12:52:45.615Z,14.20
2022-10-19T12:53:45.583Z,14.20
2022-10-19T12:54:45.547Z,14.20
2022-10-19T12:55:45.746Z,14.25
2022-10-19T12:56:45.553Z,14.31
2022-10-19T12:57:45.523Z,14.28
2022-10-19T12:58:47.629Z,14.27
2022-10-19T12:59:45.509Z,14.29
2022-10-19T13:00:45.521Z,14.37
2022-10-19T13:01:45.502Z,14.42
2022-10-19T13:02:46.453Z,14.44
2022-10-19T13:03:45.454Z,14.50
2022-10-19T13:04:45.458Z,14.47
2022-10-19T13:05:45.458Z,14.42
2022-10-19T13:06:45.422Z,14.46
2022-10-19T13:07:45.463Z,14.46
2022-10-19T13:08:45.433Z,14.43
2022-10-19T13:09:45.412Z,14.39
2022-10-19T13:10:45.372Z,14.38
2022-10-19T13:11:45.362Z,14.35
2022-10-19T13:12:45.379Z,14.24
2022-10-19T13:13:45.344Z,14.10